Strona główna
METAR-TAF:

METAR-TAF

Lotnisko :

Port lotniczy Bratysława

Bratysława, Słowacja

Szerokość geograficzna: 48-12N, Długość geograficzna: 017-12E, wysokość: 133 m

Aktualna obserwacja pogody

Raport powstał 9 minut temu, godzina 23:00 UTC
Wiatr 1 kt z kierunków zmiennych
Temperatura 11°C
Wilgotność 76%
Ciśnienie 1020 hPa
Widzialność 10 km lub więcej
Brak chmur poniżej 1500 m i brak chmur cumulonimbus

METAR: LZIB 182300Z VRB01KT CAVOK 11/07 Q1020

czas: 01:09 (23:09 UTC)

Prognoza

Raport powstał 6 godziny i 9 minut temu, godzina 17:00 UTC
Prognoza ważna od 18 godzina 18 UTC do 19 godzina 18 UTC
Wiatr 4 kt od północno-północny wschód
Widzialność 10 km lub więcej
Brak chmur poniżej 1500 m i brak chmur cumulonimbus
Przejściowo
od 19 godzina 00 UTC do 19 godzina 08 UTC
Wiatr 2 kt z kierunków zmiennych
Widzialność: 4000 m
Rozproszone chmury na wysokości 500 ft
Płytka mgła

TAF: LZIB 181700Z 1818/1918 03004KT CAVOK TEMPO 1900/1908 VRB02KT 4000 MIFG SCT005

Obserwacja i prognoza pogody dla ponad 4000 lotnisk (raport METAR i TAF).

Dostępne stacje oznaczono żółtymi i czerwonymi punktami na mapie.

Najedź kursorem aby zobaczyć nazwę stacji.

Kliknij aby zobaczyć obserwacje i prognozy pogody.

Aby zmienić mapę: kliknij na zielony przycisk z czarnym krzyżykiem, aby powiększyć; na zielony przycisk z myślnikiem, aby pomniejszyć; na zielone strzałki, aby przejść do map sąsiednich.


METAR-TAF: